Temp: 2.7°C   Baro: 1026.6mb
  Wind: 2.0mph   Dir: ESE (123°)
  Rain: 0.0mm (0.0mm/hr)
  Solar: 118W/m2  Hum: 97%

Historic data

Bath Spa Weather Station Historical Data
Daily Summary for September 27, 2022 Units:  Both    English   Metric
Daily Weekly Monthly Yearly Custom
  High: Low: Average:
Temperature: 57.6 °F /  14.2 °C 47.2 °F /  8.4 °C 52.9 °F /  11.6 °C
Dew Point: 50 °F /  10 °C 42.3 °F /  5.7 °C 46.5 °F /  8.1 °C
Humidity: 88% 70% 79%
Wind Speed: 13.3mph /  21.4km/h - 4.7mph /  7.6km/h
Wind Gust: 25mph /  40.2km/h - -
Wind- - WNW
Pressure: 29.73 in /  1006.7 hPa 29.56 in /  1000.9 hPa -
Precipitation: 0.00 in /  0 mm    
Historical Graphs
 
 
Tabular Data for September 27, 2022
Time Temperature Dew Point Pressure Wind Wind Speed Wind Gust Humidity Rainfall Rate (Hourly) solar
00:09 51.3 °F /  10.7 °C 46.9 °F /  8.3 °C 29.72in /  1006.3hPa WNW 5mph /  8km/h 9mph /  14.5km/h 85% 0.00in /  0mm 0 W/m2
00:14 51.1 °F /  10.6 °C 46.8 °F /  8.2 °C 29.72in /  1006.3hPa West 4.3mph /  6.9km/h 7mph /  11.3km/h 85% 0.00in /  0mm 0 W/m2
00:19 51.2 °F /  10.7 °C 46.7 °F /  8.2 °C 29.72in /  1006.3hPa WNW 3.3mph /  5.3km/h 8mph /  12.9km/h 84.4% 0.00in /  0mm 0 W/m2
00:24 51.1 °F /  10.6 °C 46.4 °F /  8 °C 29.72in /  1006.3hPa WNW 4mph /  6.4km/h 6mph /  9.7km/h 84% 0.00in /  0mm 0 W/m2
00:29 51.2 °F /  10.7 °C 46.5 °F /  8.1 °C 29.72in /  1006.3hPa WNW 4.6mph /  7.4km/h 8mph /  12.9km/h 84% 0.00in /  0mm 0 W/m2
00:34 51.3 °F /  10.7 °C 46.3 °F /  7.9 °C 29.72in /  1006.3hPa WNW 4.7mph /  7.6km/h 10mph /  16.1km/h 83.2% 0.00in /  0mm 0 W/m2
00:39 51.3 °F /  10.7 °C 46.2 °F /  7.9 °C 29.73in /  1006.7hPa WNW 3.4mph /  5.5km/h 8mph /  12.9km/h 83% 0.00in /  0mm 0 W/m2
00:44 51.3 °F /  10.7 °C 46 °F /  7.8 °C 29.73in /  1006.7hPa WNW 2.9mph /  4.7km/h 8mph /  12.9km/h 82.2% 0.00in /  0mm 0 W/m2
00:49 51.3 °F /  10.7 °C 46 °F /  7.8 °C 29.73in /  1006.7hPa WNW 3.3mph /  5.3km/h 7mph /  11.3km/h 82% 0.00in /  0mm 0 W/m2
00:54 51.3 °F /  10.7 °C 46 °F /  7.8 °C 29.73in /  1006.7hPa West 3.6mph /  5.8km/h 7mph /  11.3km/h 82% 0.00in /  0mm 0 W/m2
00:59 51.3 °F /  10.7 °C 46 °F /  7.8 °C 29.73in /  1006.7hPa West 3.2mph /  5.1km/h 4mph /  6.4km/h 82% 0.00in /  0mm 0 W/m2
01:04 51.3 °F /  10.7 °C 46 °F /  7.8 °C 29.73in /  1006.7hPa West 2.5mph /  4km/h 5mph /  8km/h 82% 0.00in /  0mm 0 W/m2
01:09 51.3 °F /  10.7 °C 46 °F /  7.8 °C 29.73in /  1006.7hPa WNW 3.7mph /  6km/h 6mph /  9.7km/h 82% 0.00in /  0mm 0 W/m2
01:14 51.3 °F /  10.7 °C 46 °F /  7.8 °C 29.73in /  1006.7hPa WNW 3.2mph /  5.1km/h 6mph /  9.7km/h 82% 0.00in /  0mm 0 W/m2
01:19 51.3 °F /  10.7 °C 45.9 °F /  7.7 °C 29.73in /  1006.7hPa WNW 2.9mph /  4.7km/h 7mph /  11.3km/h 81.6% 0.00in /  0mm 0 W/m2
01:24 51.3 °F /  10.7 °C 45.7 °F /  7.6 °C 29.73in /  1006.7hPa WNW 3.8mph /  6.1km/h 6mph /  9.7km/h 81% 0.00in /  0mm 0 W/m2
01:29 51.3 °F /  10.7 °C 45.7 °F /  7.6 °C 29.73in /  1006.7hPa NW 0.6mph /  1km/h 5mph /  8km/h 81% 0.00in /  0mm 0 W/m2
01:34 51.3 °F /  10.7 °C 45.7 °F /  7.6 °C 29.73in /  1006.7hPa West 4.4mph /  7.1km/h 8mph /  12.9km/h 81% 0.00in /  0mm 0 W/m2
01:39 51.3 °F /  10.7 °C 45.7 °F /  7.6 °C 29.73in /  1006.7hPa WNW 2.6mph /  4.2km/h 7mph /  11.3km/h 81% 0.00in /  0mm 0 W/m2
01:44 51.2 °F /  10.7 °C 45.6 °F /  7.6 °C 29.73in /  1006.7hPa WNW 2.1mph /  3.4km/h 4mph /  6.4km/h 81% 0.00in /  0mm 0 W/m2
01:49 51.1 °F /  10.6 °C 45.5 °F /  7.5 °C 29.73in /  1006.7hPa WNW 3.1mph /  5km/h 8mph /  12.9km/h 81% 0.00in /  0mm 0 W/m2
01:54 51.1 °F /  10.6 °C 45.5 °F /  7.5 °C 29.73in /  1006.7hPa West 2mph /  3.2km/h 7mph /  11.3km/h 81% 0.00in /  0mm 0 W/m2
01:59 51.1 °F /  10.6 °C 45.5 °F /  7.5 °C 29.73in /  1006.7hPa West 2.1mph /  3.4km/h 5mph /  8km/h 81% 0.00in /  0mm 0 W/m2
02:04 51 °F /  10.6 °C 45.6 °F /  7.6 °C 29.73in /  1006.7hPa WNW 2.1mph /  3.4km/h 7mph /  11.3km/h 81.6% 0.00in /  0mm 0 W/m2
02:09 50.9 °F /  10.5 °C 45.5 °F /  7.5 °C 29.73in /  1006.7hPa WNW 3.7mph /  6km/h 6mph /  9.7km/h 81.6% 0.00in /  0mm 0 W/m2
02:14 50.8 °F /  10.4 °C 45.6 °F /  7.6 °C 29.73in /  1006.7hPa WNW 3.7mph /  6km/h 6mph /  9.7km/h 82% 0.00in /  0mm 0 W/m2
02:19 50.7 °F /  10.4 °C 45.5 °F /  7.5 °C 29.72in /  1006.3hPa West 3.6mph /  5.8km/h 6mph /  9.7km/h 82% 0.00in /  0mm 0 W/m2
02:24 50.7 °F /  10.4 °C 45.5 °F /  7.5 °C 29.72in /  1006.3hPa West 2.8mph /  4.5km/h 5mph /  8km/h 82% 0.00in /  0mm 0 W/m2
02:29 50.7 °F /  10.4 °C 45.2 °F /  7.3 °C 29.72in /  1006.3hPa West 1.9mph /  3.1km/h 5mph /  8km/h 81.2% 0.00in /  0mm 0 W/m2
02:34 50.5 °F /  10.3 °C 45 °F /  7.2 °C 29.72in /  1006.3hPa West 2.1mph /  3.4km/h 4mph /  6.4km/h 81% 0.00in /  0mm 0 W/m2
02:38 50.5 °F /  10.3 °C 45.3 °F /  7.4 °C 29.72in /  1006.3hPa West 0.5mph /  0.8km/h 3mph /  4.8km/h 82% 0.00in /  0mm 0 W/m2
02:44 50.5 °F /  10.3 °C 45.2 °F /  7.3 °C 29.72in /  1006.3hPa West 1.3mph /  2.1km/h 3mph /  4.8km/h 82% 0.00in /  0mm 0 W/m2
02:49 50.4 °F /  10.2 °C 45.1 °F /  7.3 °C 29.72in /  1006.3hPa West 0.8mph /  1.3km/h 2mph /  3.2km/h 82% 0.00in /  0mm 0 W/m2
02:54 50.4 °F /  10.2 °C 45.1 °F /  7.3 °C 29.72in /  1006.3hPa Calm   3mph /  4.8km/h 82% 0.00in /  0mm 0 W/m2
02:59 50.4 °F /  10.2 °C 45.1 °F /  7.3 °C 29.72in /  1006.3hPa West 0.4mph /  0.6km/h 2mph /  3.2km/h 82% 0.00in /  0mm 0 W/m2
03:04 50.2 °F /  10.1 °C 45 °F /  7.2 °C 29.72in /  1006.3hPa West 0.8mph /  1.3km/h 4mph /  6.4km/h 82% 0.00in /  0mm 0 W/m2
03:09 50.2 °F /  10.1 °C 45 °F /  7.2 °C 29.72in /  1006.3hPa West 0.6mph /  1km/h 4mph /  6.4km/h 82% 0.00in /  0mm 0 W/m2
03:14 50.2 °F /  10.1 °C 45 °F /  7.2 °C 29.72in /  1006.3hPa West 1.7mph /  2.7km/h 4mph /  6.4km/h 82% 0.00in /  0mm 0 W/m2
03:19 50.3 °F /  10.2 °C 45 °F /  7.2 °C 29.72in /  1006.3hPa West 2.8mph /  4.5km/h 4mph /  6.4km/h 82% 0.00in /  0mm 0 W/m2
03:24 50.3 °F /  10.2 °C 45.1 °F /  7.3 °C 29.71in /  1006hPa West 1.6mph /  2.6km/h 4mph /  6.4km/h 82% 0.00in /  0mm 0 W/m2
03:29 50.4 °F /  10.2 °C 45.1 °F /  7.3 °C 29.71in /  1006hPa West 3.1mph /  5km/h 6mph /  9.7km/h 82% 0.00in /  0mm 0 W/m2
03:34 50.4 °F /  10.2 °C 45 °F /  7.2 °C 29.71in /  1006hPa West 3.5mph /  5.6km/h 8mph /  12.9km/h 81.4% 0.00in /  0mm 0 W/m2
03:39 50.5 °F /  10.3 °C 45 °F /  7.2 °C 29.71in /  1006hPa West 3.8mph /  6.1km/h 8mph /  12.9km/h 81% 0.00in /  0mm 0 W/m2
03:44 50.5 °F /  10.3 °C 45 °F /  7.2 °C 29.71in /  1006hPa West 4.7mph /  7.6km/h 9mph /  14.5km/h 81% 0.00in /  0mm 0 W/m2
03:49 50.5 °F /  10.3 °C 45 °F /  7.2 °C 29.71in /  1006hPa WNW 4.6mph /  7.4km/h 9mph /  14.5km/h 81% 0.00in /  0mm 0 W/m2
03:54 50.5 °F /  10.3 °C 45 °F /  7.2 °C 29.70in /  1005.6hPa WNW 4.1mph /  6.6km/h 9mph /  14.5km/h 81% 0.00in /  0mm 0 W/m2
03:59 50.5 °F /  10.3 °C 45 °F /  7.2 °C 29.70in /  1005.6hPa WNW 3.5mph /  5.6km/h 9mph /  14.5km/h 81% 0.00in /  0mm 0 W/m2
04:04 50.5 °F /  10.3 °C 45 °F /  7.2 °C 29.70in /  1005.6hPa WNW 3.7mph /  6km/h 8mph /  12.9km/h 81% 0.00in /  0mm 0 W/m2
04:09 50.5 °F /  10.3 °C 45 °F /  7.2 °C 29.70in /  1005.6hPa West 3.3mph /  5.3km/h 9mph /  14.5km/h 81% 0.00in /  0mm 0 W/m2
04:14 50.5 °F /  10.3 °C 45 °F /  7.2 °C 29.70in /  1005.6hPa West 3.6mph /  5.8km/h 8mph /  12.9km/h 81% 0.00in /  0mm 0 W/m2
04:19 50.4 °F /  10.2 °C 45 °F /  7.2 °C 29.70in /  1005.6hPa West 2.2mph /  3.5km/h 5mph /  8km/h 81.4% 0.00in /  0mm 0 W/m2
04:24 50.4 °F /  10.2 °C 45.1 °F /  7.3 °C 29.70in /  1005.6hPa West 2mph /  3.2km/h 5mph /  8km/h 82% 0.00in /  0mm 0 W/m2
04:29 50.3 °F /  10.2 °C 45.1 °F /  7.3 °C 29.70in /  1005.6hPa West 1.3mph /  2.1km/h 4mph /  6.4km/h 82% 0.00in /  0mm 0 W/m2
04:34 50.2 °F /  10.1 °C 45 °F /  7.2 °C 29.70in /  1005.6hPa West 1.4mph /  2.3km/h 4mph /  6.4km/h 82% 0.00in /  0mm 0 W/m2
04:39 50.2 °F /  10.1 °C 45.1 °F /  7.3 °C 29.70in /  1005.6hPa West 0.9mph /  1.4km/h 3mph /  4.8km/h 82.6% 0.00in /  0mm 0 W/m2
04:44 50.2 °F /  10.1 °C 45.1 °F /  7.3 °C 29.70in /  1005.6hPa West 0.4mph /  0.6km/h 3mph /  4.8km/h 83% 0.00in /  0mm 0 W/m2
04:49 50 °F /  10 °C 45 °F /  7.2 °C 29.69in /  1005.3hPa Calm   1mph /  1.6km/h 83% 0.00in /  0mm 0 W/m2
04:54 50 °F /  10 °C 45 °F /  7.2 °C 29.69in /  1005.3hPa West 1.1mph /  1.8km/h 2mph /  3.2km/h 83% 0.00in /  0mm 0 W/m2
04:59 49.8 °F /  9.9 °C 44.9 °F /  7.2 °C 29.69in /  1005.3hPa West 0.2mph /  0.3km/h 2mph /  3.2km/h 83.2% 0.00in /  0mm 0 W/m2
05:04 49.8 °F /  9.9 °C 44.9 °F /  7.2 °C 29.69in /  1005.3hPa Calm   1mph /  1.6km/h 83.4% 0.00in /  0mm 0 W/m2
05:09 49.6 °F /  9.8 °C 45 °F /  7.2 °C 29.69in /  1005.3hPa Calm     84% 0.00in /  0mm 0 W/m2
05:14 49.6 °F /  9.8 °C 44.9 °F /  7.2 °C 29.69in /  1005.3hPa West 0.8mph /  1.3km/h 3mph /  4.8km/h 84% 0.00in /  0mm 0 W/m2
05:19 49.5 °F /  9.7 °C 44.8 °F /  7.1 °C 29.69in /  1005.3hPa West 2.8mph /  4.5km/h 5mph /  8km/h 84% 0.00in /  0mm 0 W/m2
05:24 49.5 °F /  9.7 °C 45 °F /  7.2 °C 29.69in /  1005.3hPa West 2mph /  3.2km/h 4mph /  6.4km/h 84.6% 0.00in /  0mm 0 W/m2
05:29 49.5 °F /  9.7 °C 45 °F /  7.2 °C 29.68in /  1005hPa West 0.8mph /  1.3km/h 3mph /  4.8km/h 84.6% 0.00in /  0mm 0 W/m2
05:34 49.5 °F /  9.7 °C 45.1 °F /  7.3 °C 29.68in /  1005hPa West 1.6mph /  2.6km/h 4mph /  6.4km/h 85% 0.00in /  0mm 0 W/m2
05:39 49.6 °F /  9.8 °C 45.2 °F /  7.3 °C 29.68in /  1005hPa West 1.1mph /  1.8km/h 3mph /  4.8km/h 85% 0.00in /  0mm 0 W/m2
05:44 49.6 °F /  9.8 °C 45.3 °F /  7.4 °C 29.68in /  1005hPa West 1.7mph /  2.7km/h 3mph /  4.8km/h 85% 0.00in /  0mm 0 W/m2
05:49 49.8 °F /  9.9 °C 45.5 °F /  7.5 °C 29.68in /  1005hPa West 2.3mph /  3.7km/h 4mph /  6.4km/h 85% 0.00in /  0mm 0 W/m2
05:54 50 °F /  10 °C 45.3 °F /  7.4 °C 29.68in /  1005hPa WNW 4.4mph /  7.1km/h 8mph /  12.9km/h 84.2% 0.00in /  0mm 0 W/m2
05:59 50.5 °F /  10.3 °C 45.6 °F /  7.6 °C 29.68in /  1005hPa WNW 3.5mph /  5.6km/h 7mph /  11.3km/h 83.5% 0.00in /  0mm 0 W/m2
06:04 50.6 °F /  10.3 °C 45.6 °F /  7.6 °C 29.68in /  1005hPa WNW 2.9mph /  4.7km/h 6mph /  9.7km/h 82.8% 0.00in /  0mm 0 W/m2
06:09 50.9 °F /  10.5 °C 45.6 °F /  7.6 °C 29.68in /  1005hPa WNW 4.8mph /  7.7km/h 11mph /  17.7km/h 81.8% 0.00in /  0mm 0 W/m2
06:14 51.2 °F /  10.7 °C 45.5 °F /  7.5 °C 29.68in /  1005hPa West 7.2mph /  11.6km/h 14mph /  22.5km/h 80.8% 0.00in /  0mm 0 W/m2
06:19 51.4 °F /  10.8 °C 45.5 °F /  7.5 °C 29.68in /  1005hPa West 7mph /  11.3km/h 13mph /  20.9km/h 80% 0.00in /  0mm 0 W/m2
06:24 51.4 °F /  10.8 °C 45.1 °F /  7.3 °C 29.68in /  1005hPa West 6.1mph /  9.8km/h 10mph /  16.1km/h 79% 0.00in /  0mm 0 W/m2
06:29 51.4 °F /  10.8 °C 45.1 °F /  7.3 °C 29.67in /  1004.6hPa West 6mph /  9.7km/h 9mph /  14.5km/h 79% 0.00in /  0mm 0 W/m2
06:34 51.3 °F /  10.7 °C 45 °F /  7.2 °C 29.67in /  1004.6hPa West 5.4mph /  8.7km/h 13mph /  20.9km/h 79% 0.00in /  0mm 0 W/m2
06:39 51.3 °F /  10.7 °C 45.2 °F /  7.3 °C 29.67in /  1004.6hPa West 4.7mph /  7.6km/h 9mph /  14.5km/h 79.8% 0.00in /  0mm 0 W/m2
06:44 51.1 °F /  10.6 °C 45.1 °F /  7.3 °C 29.68in /  1005hPa WNW 6mph /  9.7km/h 11mph /  17.7km/h 80% 0.00in /  0mm 0 W/m2
06:49 51.1 °F /  10.6 °C 45.3 °F /  7.4 °C 29.68in /  1005hPa WNW 3mph /  4.8km/h 11mph /  17.7km/h 80.4% 0.00in /  0mm 0 W/m2
06:54 51.1 °F /  10.6 °C 45.5 °F /  7.5 °C 29.68in /  1005hPa West 5.5mph /  8.9km/h 9mph /  14.5km/h 81% 0.00in /  0mm 0 W/m2
06:59 51.1 °F /  10.6 °C 45.5 °F /  7.5 °C 29.68in /  1005hPa WNW 4.5mph /  7.2km/h 10mph /  16.1km/h 81% 0.00in /  0mm 0 W/m2
07:04 50.9 °F /  10.5 °C 45.5 °F /  7.5 °C 29.68in /  1005hPa WNW 5.4mph /  8.7km/h 10mph /  16.1km/h 81.6% 0.00in /  0mm 0 W/m2
07:09 50.7 °F /  10.4 °C 45.5 °F /  7.5 °C 29.68in /  1005hPa WNW 3mph /  4.8km/h 8mph /  12.9km/h 82% 0.00in /  0mm 0 W/m2
07:14 50.6 °F /  10.3 °C 45.5 °F /  7.5 °C 29.68in /  1005hPa WNW 5mph /  8km/h 8mph /  12.9km/h 82.6% 0.00in /  0mm 0 W/m2
07:19 50.5 °F /  10.3 °C 45.5 °F /  7.5 °C 29.68in /  1005hPa WNW 3.3mph /  5.3km/h 6mph /  9.7km/h 83% 0.00in /  0mm 5 W/m2
07:24 50.5 °F /  10.3 °C 45.6 °F /  7.6 °C 29.68in /  1005hPa WNW 2.6mph /  4.2km/h 6mph /  9.7km/h 83.2% 0.00in /  0mm 5 W/m2
07:29 50.7 °F /  10.4 °C 46 °F /  7.8 °C 29.68in /  1005hPa West 4.8mph /  7.7km/h 12mph /  19.3km/h 84% 0.00in /  0mm 9 W/m2
07:34 50.9 °F /  10.5 °C 46.2 °F /  7.9 °C 29.68in /  1005hPa West 4.8mph /  7.7km/h 13mph /  20.9km/h 84% 0.00in /  0mm 21 W/m2
07:39 50.7 °F /  10.4 °C 46.3 °F /  7.9 °C 29.67in /  1004.6hPa West 5.9mph /  9.5km/h 11mph /  17.7km/h 84.6% 0.00in /  0mm 23 W/m2
07:44 50.7 °F /  10.4 °C 46.4 °F /  8 °C 29.67in /  1004.6hPa West 5.8mph /  9.3km/h 10mph /  16.1km/h 85% 0.00in /  0mm 25 W/m2
07:48 50.5 °F /  10.3 °C 46.2 °F /  7.9 °C 29.67in /  1004.6hPa West 7.5mph /  12.1km/h 11mph /  17.7km/h 85% 0.00in /  0mm 23 W/m2
07:54 50.5 °F /  10.3 °C 46.3 °F /  7.9 °C 29.67in /  1004.6hPa WNW 4.4mph /  7.1km/h 10mph /  16.1km/h 85.2% 0.00in /  0mm 32 W/m2
07:59 50.5 °F /  10.3 °C 46.6 °F /  8.1 °C 29.67in /  1004.6hPa WNW 5.5mph /  8.9km/h 13mph /  20.9km/h 86% 0.00in /  0mm 40 W/m2
08:04 50.4 °F /  10.2 °C 46.5 °F /  8.1 °C 29.67in /  1004.6hPa WNW 5.2mph /  8.4km/h 9mph /  14.5km/h 86% 0.00in /  0mm 44 W/m2
08:09 50.4 °F /  10.2 °C 46.6 °F /  8.1 °C 29.66in /  1004.3hPa West 5.3mph /  8.5km/h 9mph /  14.5km/h 87% 0.00in /  0mm 40 W/m2
08:14 50.4 °F /  10.2 °C 46.6 °F /  8.1 °C 29.66in /  1004.3hPa West 6.6mph /  10.6km/h 10mph /  16.1km/h 87% 0.00in /  0mm 40 W/m2
08:19 50.6 °F /  10.3 °C 47.1 °F /  8.4 °C 29.66in /  1004.3hPa WNW 6.4mph /  10.3km/h 11mph /  17.7km/h 87.6% 0.00in /  0mm 54 W/m2
08:24 50.9 °F /  10.5 °C 47.5 °F /  8.6 °C 29.66in /  1004.3hPa West 4.7mph /  7.6km/h 11mph /  17.7km/h 88% 0.00in /  0mm 62 W/m2
08:29 51.2 °F /  10.7 °C 47.7 °F /  8.7 °C 29.66in /  1004.3hPa WNW 6.1mph /  9.8km/h 11mph /  17.7km/h 88% 0.00in /  0mm 111 W/m2
08:34 51.4 °F /  10.8 °C 47.9 °F /  8.8 °C 29.66in /  1004.3hPa West 5.4mph /  8.7km/h 12mph /  19.3km/h 88% 0.00in /  0mm 116 W/m2
08:39 51.6 °F /  10.9 °C 48.2 °F /  9 °C 29.66in /  1004.3hPa WNW 6mph /  9.7km/h 11mph /  17.7km/h 88% 0.00in /  0mm 123 W/m2
08:44 52.1 °F /  11.2 °C 48.3 °F /  9.1 °C 29.65in /  1003.9hPa West 4mph /  6.4km/h 10mph /  16.1km/h 87.3% 0.00in /  0mm 109 W/m2
08:49 52.2 °F /  11.2 °C 48.4 °F /  9.1 °C 29.65in /  1003.9hPa West 5.2mph /  8.4km/h 13mph /  20.9km/h 87% 0.00in /  0mm 130 W/m2
08:54 52.3 °F /  11.3 °C 48.6 °F /  9.2 °C 29.65in /  1003.9hPa West 5.3mph /  8.5km/h 13mph /  20.9km/h 87% 0.00in /  0mm 120 W/m2
08:59 52.4 °F /  11.3 °C 48.6 °F /  9.2 °C 29.65in /  1003.9hPa West 4.6mph /  7.4km/h 11mph /  17.7km/h 87% 0.00in /  0mm 172 W/m2
09:04 52.6 °F /  11.4 °C 48.8 °F /  9.3 °C 29.65in /  1003.9hPa West 5.2mph /  8.4km/h 15mph /  24.1km/h 87% 0.00in /  0mm 149 W/m2
09:09 52.8 °F /  11.6 °C 48.7 °F /  9.3 °C 29.65in /  1003.9hPa West 7.8mph /  12.6km/h 13mph /  20.9km/h 86.2% 0.00in /  0mm 204 W/m2
09:14 52.8 °F /  11.6 °C 48.7 °F /  9.3 °C 29.65in /  1003.9hPa West 9.2mph /  14.8km/h 16mph /  25.7km/h 86% 0.00in /  0mm 127 W/m2
09:19 52.8 °F /  11.6 °C 48.7 °F /  9.3 °C 29.65in /  1003.9hPa West 6.8mph /  10.9km/h 14mph /  22.5km/h 86% 0.00in /  0mm 141 W/m2
09:24 53 °F /  11.7 °C 48.9 °F /  9.4 °C 29.65in /  1003.9hPa West 5mph /  8km/h 11mph /  17.7km/h 86% 0.00in /  0mm 353 W/m2
09:29 53.3 °F /  11.8 °C 49.1 °F /  9.5 °C 29.65in /  1003.9hPa West 7.7mph /  12.4km/h 14mph /  22.5km/h 85.5% 0.00in /  0mm 225 W/m2
09:34 53.5 °F /  11.9 °C 49.2 °F /  9.6 °C 29.65in /  1003.9hPa West 7.5mph /  12.1km/h 13mph /  20.9km/h 85% 0.00in /  0mm 230 W/m2
09:39 53.9 °F /  12.2 °C 49.6 °F /  9.8 °C 29.65in /  1003.9hPa West 5.4mph /  8.7km/h 9mph /  14.5km/h 85% 0.00in /  0mm 272 W/m2
09:44 54.3 °F /  12.4 °C 49.8 °F /  9.9 °C 29.65in /  1003.9hPa WNW 8.3mph /  13.4km/h 13mph /  20.9km/h 84.8% 0.00in /  0mm 292 W/m2
09:49 54.8 °F /  12.7 °C 50 °F /  10 °C 29.65in /  1003.9hPa West 8.2mph /  13.2km/h 20mph /  32.2km/h 83.6% 0.00in /  0mm 294 W/m2
09:54 55.2 °F /  12.9 °C 49.9 °F /  9.9 °C 29.65in /  1003.9hPa West 8.2mph /  13.2km/h 18mph /  29km/h 82.4% 0.00in /  0mm 309 W/m2
09:59 55.5 °F /  13.1 °C 49.5 °F /  9.7 °C 29.65in /  1003.9hPa WNW 6.8mph /  10.9km/h 18mph /  29km/h 80.4% 0.00in /  0mm 318 W/m2
10:04 55.7 °F /  13.2 °C 49.2 °F /  9.6 °C 29.65in /  1003.9hPa West 9.4mph /  15.1km/h 19mph /  30.6km/h 79% 0.00in /  0mm 388 W/m2
10:09 55.9 °F /  13.3 °C 49.1 °F /  9.5 °C 29.65in /  1003.9hPa West 10mph /  16.1km/h 20mph /  32.2km/h 78% 0.00in /  0mm 388 W/m2
10:14 55.9 °F /  13.3 °C 48.9 °F /  9.4 °C 29.65in /  1003.9hPa WNW 11.3mph /  18.2km/h 20mph /  32.2km/h 77% 0.00in /  0mm 381 W/m2
10:19 55.9 °F /  13.3 °C 48.8 °F /  9.3 °C 29.64in /  1003.6hPa WNW 10.8mph /  17.4km/h 21mph /  33.8km/h 76.5% 0.00in /  0mm 445 W/m2
10:24 56.1 °F /  13.4 °C 48.8 °F /  9.3 °C 29.65in /  1003.9hPa WNW 12.2mph /  19.6km/h 21mph /  33.8km/h 76% 0.00in /  0mm 503 W/m2
10:29 56.4 °F /  13.6 °C 48.6 °F /  9.2 °C 29.65in /  1003.9hPa WNW 10.3mph /  16.6km/h 25mph /  40.2km/h 75% 0.00in /  0mm 478 W/m2
10:34 56.4 °F /  13.6 °C 48.6 °F /  9.2 °C 29.64in /  1003.6hPa WNW 7.4mph /  11.9km/h 19mph /  30.6km/h 75% 0.00in /  0mm 490 W/m2
10:39 56.7 °F /  13.7 °C 48.6 °F /  9.2 °C 29.64in /  1003.6hPa WNW 11.4mph /  18.3km/h 25mph /  40.2km/h 74.8% 0.00in /  0mm 457 W/m2
10:44 56.7 °F /  13.7 °C 48.4 °F /  9.1 °C 29.64in /  1003.6hPa West 9.9mph /  15.9km/h 22mph /  35.4km/h 74% 0.00in /  0mm 536 W/m2
10:49 56.5 °F /  13.6 °C 48.4 °F /  9.1 °C 29.64in /  1003.6hPa WNW 9.8mph /  15.8km/h 22mph /  35.4km/h 74% 0.00in /  0mm 536 W/m2
10:54 56.9 °F /  13.8 °C 48.9 °F /  9.4 °C 29.64in /  1003.6hPa West 9.4mph /  15.1km/h 16mph /  25.7km/h 75% 0.00in /  0mm 606 W/m2
10:59 56.9 °F /  13.8 °C 48.8 °F /  9.3 °C 29.63in /  1003.3hPa West 13.3mph /  21.4km/h 24mph /  38.6km/h 74.4% 0.00in /  0mm 322 W/m2
11:04 56.3 °F /  13.5 °C 48.2 °F /  9 °C 29.64in /  1003.6hPa WNW 12.8mph /  20.6km/h 18mph /  29km/h 74% 0.00in /  0mm 285 W/m2
11:09 56.1 °F /  13.4 °C 48.3 °F /  9.1 °C 29.64in /  1003.6hPa WNW 7.9mph /  12.7km/h 18mph /  29km/h 74.6% 0.00in /  0mm 315 W/m2
11:14 56.6 °F /  13.7 °C 48.7 °F /  9.3 °C 29.64in /  1003.6hPa WNW 7mph /  11.3km/h 16mph /  25.7km/h 75% 0.00in /  0mm 315 W/m2
11:19 56.5 °F /  13.6 °C 48.4 °F /  9.1 °C 29.64in /  1003.6hPa West 11.2mph /  18km/h 21mph /  33.8km/h 74% 0.00in /  0mm 243 W/m2
11:24 56.4 °F /  13.6 °C 47.9 °F /  8.8 °C 29.63in /  1003.3hPa West 9.6mph /  15.4km/h 19mph /  30.6km/h 73% 0.00in /  0mm 165 W/m2
11:29 56.1 °F /  13.4 °C 47.6 °F /  8.7 °C 29.63in /  1003.3hPa WNW 7.5mph /  12.1km/h 15mph /  24.1km/h 72.8% 0.00in /  0mm 93 W/m2
11:34 56.1 °F /  13.4 °C 47.6 °F /  8.7 °C 29.63in /  1003.3hPa WNW 8.2mph /  13.2km/h 13mph /  20.9km/h 72.8% 0.00in /  0mm 121 W/m2
11:39 56 °F /  13.3 °C 47.6 °F /  8.7 °C 29.63in /  1003.3hPa NW 8.3mph /  13.4km/h 15mph /  24.1km/h 73% 0.00in /  0mm 120 W/m2
11:44 55.9 °F /  13.3 °C 47.5 °F /  8.6 °C 29.63in /  1003.3hPa West 5.8mph /  9.3km/h 15mph /  24.1km/h 73% 0.00in /  0mm 107 W/m2
11:49 55.4 °F /  13 °C 47.3 °F /  8.5 °C 29.63in /  1003.3hPa West 10mph /  16.1km/h 17mph /  27.4km/h 74% 0.00in /  0mm 144 W/m2
11:54 55.2 °F /  12.9 °C 47.5 °F /  8.6 °C 29.63in /  1003.3hPa West 6.2mph /  10km/h 13mph /  20.9km/h 75% 0.00in /  0mm 211 W/m2
11:59 55.5 °F /  13.1 °C 47.8 °F /  8.8 °C 29.62in /  1002.9hPa West 7.6mph /  12.2km/h 16mph /  25.7km/h 75% 0.00in /  0mm 216 W/m2
12:04 55.8 °F /  13.2 °C 48 °F /  8.9 °C 29.62in /  1002.9hPa West 7mph /  11.3km/h 16mph /  25.7km/h 75% 0.00in /  0mm 134 W/m2
12:09 55.7 °F /  13.2 °C 47.8 °F /  8.8 °C 29.62in /  1002.9hPa WNW 10.2mph /  16.4km/h 18mph /  29km/h 74.6% 0.00in /  0mm 93 W/m2
12:14 55.6 °F /  13.1 °C 47.5 °F /  8.6 °C 29.62in /  1002.9hPa West 7.5mph /  12.1km/h 15mph /  24.1km/h 74% 0.00in /  0mm 100 W/m2
12:19 55.6 °F /  13.1 °C 47.7 °F /  8.7 °C 29.62in /  1002.9hPa West 6.5mph /  10.5km/h 12mph /  19.3km/h 74.8% 0.00in /  0mm 128 W/m2
12:24 55.6 °F /  13.1 °C 47.8 °F /  8.8 °C 29.61in /  1002.6hPa WNW 9.2mph /  14.8km/h 15mph /  24.1km/h 75% 0.00in /  0mm 155 W/m2
12:29 55.5 °F /  13.1 °C 47.8 °F /  8.8 °C 29.62in /  1002.9hPa WNW 13mph /  20.9km/h 22mph /  35.4km/h 75% 0.00in /  0mm 185 W/m2
12:34 55.4 °F /  13 °C 47.7 °F /  8.7 °C 29.62in /  1002.9hPa WNW 7.1mph /  11.4km/h 22mph /  35.4km/h 75% 0.00in /  0mm 171 W/m2
12:39 55.6 °F /  13.1 °C 47.8 °F /  8.8 °C 29.62in /  1002.9hPa WNW 12.6mph /  20.3km/h 19mph /  30.6km/h 75% 0.00in /  0mm 167 W/m2
12:44 55.2 °F /  12.9 °C 47.8 °F /  8.8 °C 29.62in /  1002.9hPa WNW 11.1mph /  17.9km/h 17mph /  27.4km/h 75.8% 0.00in /  0mm 141 W/m2
12:49 55.2 °F /  12.9 °C 48 °F /  8.9 °C 29.62in /  1002.9hPa West 8.6mph /  13.8km/h 17mph /  27.4km/h 76.6% 0.00in /  0mm 130 W/m2
12:54 55 °F /  12.8 °C 48.2 °F /  9 °C 29.62in /  1002.9hPa WNW 6.7mph /  10.8km/h 15mph /  24.1km/h 77.4% 0.00in /  0mm 114 W/m2
12:59 55 °F /  12.8 °C 48.4 °F /  9.1 °C 29.61in /  1002.6hPa WNW 6.4mph /  10.3km/h 16mph /  25.7km/h 78% 0.00in /  0mm 197 W/m2
13:04 55.3 °F /  12.9 °C 48.7 °F /  9.3 °C 29.61in /  1002.6hPa NW 3.8mph /  6.1km/h 10mph /  16.1km/h 78% 0.00in /  0mm 185 W/m2
13:09 55.5 °F /  13.1 °C 48.8 °F /  9.3 °C 29.61in /  1002.6hPa NNW 5mph /  8km/h 9mph /  14.5km/h 78% 0.00in /  0mm 97 W/m2
13:14 55.2 °F /  12.9 °C 48.6 °F /  9.2 °C 29.61in /  1002.6hPa NNW 5.5mph /  8.9km/h 8mph /  12.9km/h 78.3% 0.00in /  0mm 91 W/m2
13:19 54.9 °F /  12.7 °C 48.6 °F /  9.2 °C 29.61in /  1002.6hPa NW 4.1mph /  6.6km/h 8mph /  12.9km/h 79% 0.00in /  0mm 142 W/m2
13:24 54.9 °F /  12.7 °C 48.6 °F /  9.2 °C 29.61in /  1002.6hPa NW 3.8mph /  6.1km/h 7mph /  11.3km/h 79% 0.00in /  0mm 179 W/m2
13:29 54.9 °F /  12.7 °C 48.6 °F /  9.2 °C 29.61in /  1002.6hPa WNW 5.5mph /  8.9km/h 7mph /  11.3km/h 79% 0.00in /  0mm 290 W/m2
13:34 55.2 °F /  12.9 °C 48.7 °F /  9.3 °C 29.61in /  1002.6hPa NW 5.5mph /  8.9km/h 11mph /  17.7km/h 78.4% 0.00in /  0mm 320 W/m2
13:39 55.7 °F /  13.2 °C 48.7 °F /  9.3 °C 29.60in /  1002.3hPa WNW 5.7mph /  9.2km/h 12mph /  19.3km/h 77.2% 0.00in /  0mm 239 W/m2
13:44 56.3 °F /  13.5 °C 48.8 °F /  9.3 °C 29.60in /  1002.3hPa WNW 7.2mph /  11.6km/h 15mph /  24.1km/h 75.8% 0.00in /  0mm 468 W/m2
13:49 57.3 °F /  14.1 °C 48.8 °F /  9.3 °C 29.60in /  1002.3hPa WNW 10.4mph /  16.7km/h 17mph /  27.4km/h 73.6% 0.00in /  0mm 480 W/m2
13:54 57.6 °F /  14.2 °C 48.1 °F /  8.9 °C 29.60in /  1002.3hPa WNW 9.6mph /  15.4km/h 20mph /  32.2km/h 70.8% 0.00in /  0mm 153 W/m2
13:59 56.9 °F /  13.8 °C 48 °F /  8.9 °C 29.60in /  1002.3hPa NNW 7.4mph /  11.9km/h 13mph /  20.9km/h 72.2% 0.00in /  0mm 149 W/m2
14:04 56.2 °F /  13.4 °C 48.3 °F /  9.1 °C 29.60in /  1002.3hPa NW 7mph /  11.3km/h 13mph /  20.9km/h 74.4% 0.00in /  0mm 186 W/m2
14:09 55.9 °F /  13.3 °C 48.3 °F /  9.1 °C 29.60in /  1002.3hPa NW 4.8mph /  7.7km/h 13mph /  20.9km/h 75.2% 0.00in /  0mm 160 W/m2
14:14 55.9 °F /  13.3 °C 48.5 °F /  9.2 °C 29.59in /  1001.9hPa NNW 4.2mph /  6.8km/h 10mph /  16.1km/h 76% 0.00in /  0mm 234 W/m2
14:19 55.9 °F /  13.3 °C 48.8 °F /  9.3 °C 29.59in /  1001.9hPa NNW 2.5mph /  4km/h 7mph /  11.3km/h 77% 0.00in /  0mm 260 W/m2
14:24 55.9 °F /  13.3 °C 48.9 °F /  9.4 °C 29.59in /  1001.9hPa NW 4.4mph /  7.1km/h 9mph /  14.5km/h 77% 0.00in /  0mm 253 W/m2
14:29 55.9 °F /  13.3 °C 48.9 °F /  9.4 °C 29.59in /  1001.9hPa NW 5.4mph /  8.7km/h 9mph /  14.5km/h 77% 0.00in /  0mm 192 W/m2
14:34 56 °F /  13.3 °C 48.7 °F /  9.3 °C 29.59in /  1001.9hPa WNW 4.9mph /  7.9km/h 9mph /  14.5km/h 76.2% 0.00in /  0mm 199 W/m2
14:39 56.4 °F /  13.6 °C 48.9 °F /  9.4 °C 29.59in /  1001.9hPa West 5.5mph /  8.9km/h 11mph /  17.7km/h 75.8% 0.00in /  0mm 169 W/m2
14:44 56.8 °F /  13.8 °C 48.6 °F /  9.2 °C 29.59in /  1001.9hPa WNW 5.2mph /  8.4km/h 11mph /  17.7km/h 74.2% 0.00in /  0mm 105 W/m2
14:49 56.8 °F /  13.8 °C 48 °F /  8.9 °C 29.59in /  1001.9hPa West 5.8mph /  9.3km/h 14mph /  22.5km/h 72.6% 0.00in /  0mm 107 W/m2
14:54 56.8 °F /  13.8 °C 47.7 °F /  8.7 °C 29.59in /  1001.9hPa West 6.7mph /  10.8km/h 17mph /  27.4km/h 71.8% 0.00in /  0mm 109 W/m2
14:59 56.7 °F /  13.7 °C 47.8 °F /  8.8 °C 29.59in /  1001.9hPa West 7.8mph /  12.6km/h 17mph /  27.4km/h 72.4% 0.00in /  0mm 155 W/m2
15:04 56.1 °F /  13.4 °C 47.9 °F /  8.8 °C 29.59in /  1001.9hPa West 7.5mph /  12.1km/h 16mph /  25.7km/h 73.8% 0.00in /  0mm 128 W/m2
15:09 55.8 °F /  13.2 °C 48.1 °F /  8.9 °C 29.58in /  1001.6hPa West 6.8mph /  10.9km/h 14mph /  22.5km/h 75.2% 0.00in /  0mm 155 W/m2
15:14 55.9 °F /  13.3 °C 48.5 °F /  9.2 °C 29.58in /  1001.6hPa West 6.4mph /  10.3km/h 16mph /  25.7km/h 75.8% 0.00in /  0mm 190 W/m2
15:19 56.3 °F /  13.5 °C 48.7 °F /  9.3 °C 29.58in /  1001.6hPa WNW 6mph /  9.7km/h 12mph /  19.3km/h 75.6% 0.00in /  0mm 183 W/m2
15:24 56.7 °F /  13.7 °C 48.6 °F /  9.2 °C 29.59in /  1001.9hPa WNW 6.7mph /  10.8km/h 14mph /  22.5km/h 74.8% 0.00in /  0mm 111 W/m2
15:29 56.6 °F /  13.7 °C 47.8 °F /  8.8 °C 29.59in /  1001.9hPa WNW 9mph /  14.5km/h 17mph /  27.4km/h 72.6% 0.00in /  0mm 113 W/m2
15:34 56.5 °F /  13.6 °C 47.1 °F /  8.4 °C 29.58in /  1001.6hPa WNW 10.4mph /  16.7km/h 18mph /  29km/h 70.8% 0.00in /  0mm 113 W/m2
15:39 56.7 °F /  13.7 °C 46.9 °F /  8.3 °C 29.58in /  1001.6hPa WNW 7mph /  11.3km/h 16mph /  25.7km/h 70% 0.00in /  0mm 123 W/m2
15:44 56.7 °F /  13.7 °C 47.1 °F /  8.4 °C 29.58in /  1001.6hPa WNW 9.9mph /  15.9km/h 16mph /  25.7km/h 70.6% 0.00in /  0mm 142 W/m2
15:49 56.5 °F /  13.6 °C 47.2 °F /  8.4 °C 29.59in /  1001.9hPa WNW 9.6mph /  15.4km/h 23mph /  37km/h 71.2% 0.00in /  0mm 176 W/m2
15:54 56.4 °F /  13.6 °C 47.7 °F /  8.7 °C 29.59in /  1001.9hPa NNW 5.8mph /  9.3km/h 16mph /  25.7km/h 72.6% 0.00in /  0mm 176 W/m2
15:59 55.9 °F /  13.3 °C 47.7 °F /  8.7 °C 29.58in /  1001.6hPa NW 7.8mph /  12.6km/h 16mph /  25.7km/h 73.8% 0.00in /  0mm 155 W/m2
16:04 55.8 °F /  13.2 °C 47.9 °F /  8.8 °C 29.58in /  1001.6hPa NW 4.6mph /  7.4km/h 9mph /  14.5km/h 74.8% 0.00in /  0mm 130 W/m2
16:09 55.6 °F /  13.1 °C 47.8 °F /  8.8 °C 29.58in /  1001.6hPa West 4.1mph /  6.6km/h 12mph /  19.3km/h 75% 0.00in /  0mm 121 W/m2
16:14 55.6 °F /  13.1 °C 47.8 °F /  8.8 °C 29.58in /  1001.6hPa WNW 6.3mph /  10.1km/h 12mph /  19.3km/h 75% 0.00in /  0mm 155 W/m2
16:19 55.6 °F /  13.1 °C 47.8 °F /  8.8 °C 29.58in /  1001.6hPa WNW 7.6mph /  12.2km/h 14mph /  22.5km/h 75% 0.00in /  0mm 149 W/m2
16:24 55.6 °F /  13.1 °C 47.8 °F /  8.8 °C 29.58in /  1001.6hPa WNW 7mph /  11.3km/h 14mph /  22.5km/h 75% 0.00in /  0mm 137 W/m2
16:29 55.6 °F /  13.1 °C 47.8 °F /  8.8 °C 29.58in /  1001.6hPa West 7.7mph /  12.4km/h 14mph /  22.5km/h 75% 0.00in /  0mm 128 W/m2
16:34 55.5 °F /  13.1 °C 47.7 °F /  8.7 °C 29.58in /  1001.6hPa West 6.2mph /  10km/h 12mph /  19.3km/h 75% 0.00in /  0mm 128 W/m2
16:39 55.5 °F /  13.1 °C 47.7 °F /  8.7 °C 29.58in /  1001.6hPa WNW 6.7mph /  10.8km/h 13mph /  20.9km/h 75% 0.00in /  0mm 111 W/m2
16:44 55.4 °F /  13 °C 47.7 °F /  8.7 °C 29.58in /  1001.6hPa WNW 7.5mph /  12.1km/h 10mph /  16.1km/h 75% 0.00in /  0mm 100 W/m2
16:49 55.2 °F /  12.9 °C 47.5 °F /  8.6 °C 29.58in /  1001.6hPa WNW 7.2mph /  11.6km/h 12mph /  19.3km/h 75% 0.00in /  0mm 91 W/m2
16:54 55.2 °F /  12.9 °C 47.5 °F /  8.6 °C 29.58in /  1001.6hPa West 5mph /  8km/h 9mph /  14.5km/h 75% 0.00in /  0mm 70 W/m2
16:59 55.2 °F /  12.9 °C 47.6 °F /  8.7 °C 29.57in /  1001.2hPa WNW 4.5mph /  7.2km/h 10mph /  16.1km/h 75.4% 0.00in /  0mm 98 W/m2
17:04 55.4 °F /  13 °C 48 °F /  8.9 °C 29.57in /  1001.2hPa West 4.2mph /  6.8km/h 10mph /  16.1km/h 76% 0.00in /  0mm 100 W/m2
17:09 55.4 °F /  13 °C 48 °F /  8.9 °C 29.57in /  1001.2hPa West 4.4mph /  7.1km/h 9mph /  14.5km/h 76% 0.00in /  0mm 83 W/m2
17:14 55.4 °F /  13 °C 48 °F /  8.9 °C 29.57in /  1001.2hPa WNW 4.5mph /  7.2km/h 9mph /  14.5km/h 76% 0.00in /  0mm 56 W/m2
17:19 55.4 °F /  13 °C 48 °F /  8.9 °C 29.57in /  1001.2hPa West 6.6mph /  10.6km/h 11mph /  17.7km/h 76% 0.00in /  0mm 58 W/m2
17:24 55.2 °F /  12.9 °C 47.8 °F /  8.8 °C 29.57in /  1001.2hPa West 5.2mph /  8.4km/h 12mph /  19.3km/h 76% 0.00in /  0mm 67 W/m2
17:29 55.2 °F /  12.9 °C 47.8 °F /  8.8 °C 29.57in /  1001.2hPa West 7.4mph /  11.9km/h 14mph /  22.5km/h 76% 0.00in /  0mm 70 W/m2
17:34 55.1 °F /  12.8 °C 47.8 °F /  8.8 °C 29.57in /  1001.2hPa West 7.6mph /  12.2km/h 13mph /  20.9km/h 76% 0.00in /  0mm 60 W/m2
17:39 55 °F /  12.8 °C 47.7 °F /  8.7 °C 29.56in /  1000.9hPa West 6mph /  9.7km/h 13mph /  20.9km/h 76% 0.00in /  0mm 49 W/m2
17:44 55 °F /  12.8 °C 47.7 °F /  8.7 °C 29.56in /  1000.9hPa West 6.9mph /  11.1km/h 14mph /  22.5km/h 76% 0.00in /  0mm 39 W/m2
17:49 55 °F /  12.8 °C 47.6 °F /  8.7 °C 29.56in /  1000.9hPa WNW 5.9mph /  9.5km/h 12mph /  19.3km/h 75.8% 0.00in /  0mm 37 W/m2
17:54 55 °F /  12.8 °C 47.3 °F /  8.5 °C 29.56in /  1000.9hPa WNW 6mph /  9.7km/h 15mph /  24.1km/h 75% 0.00in /  0mm 46 W/m2
17:59 55 °F /  12.8 °C 47.3 °F /  8.5 °C 29.57in /  1001.2hPa WNW 4.1mph /  6.6km/h 10mph /  16.1km/h 75% 0.00in /  0mm 44 W/m2
18:04 55 °F /  12.8 °C 47.3 °F /  8.5 °C 29.56in /  1000.9hPa WNW 5.6mph /  9km/h 10mph /  16.1km/h 75% 0.00in /  0mm 42 W/m2
18:09 55 °F /  12.8 °C 47.3 °F /  8.5 °C 29.56in /  1000.9hPa West 5.2mph /  8.4km/h 10mph /  16.1km/h 75% 0.00in /  0mm 32 W/m2
18:14 55 °F /  12.8 °C 47.2 °F /  8.4 °C 29.57in /  1001.2hPa West 4.4mph /  7.1km/h 11mph /  17.7km/h 75% 0.00in /  0mm 25 W/m2
18:19 54.8 °F /  12.7 °C 47 °F /  8.3 °C 29.57in /  1001.2hPa West 6mph /  9.7km/h 9mph /  14.5km/h 75% 0.00in /  0mm 19 W/m2
18:24 54.5 °F /  12.5 °C 47.1 °F /  8.4 °C 29.57in /  1001.2hPa West 5.6mph /  9km/h 10mph /  16.1km/h 76% 0.00in /  0mm 16 W/m2
18:29 54.3 °F /  12.4 °C 47 °F /  8.3 °C 29.57in /  1001.2hPa WNW 5.8mph /  9.3km/h 9mph /  14.5km/h 76.2% 0.00in /  0mm 16 W/m2
18:34 54.2 °F /  12.3 °C 47.1 °F /  8.4 °C 29.57in /  1001.2hPa West 3.7mph /  6km/h 10mph /  16.1km/h 76.8% 0.00in /  0mm 14 W/m2
18:39 54.1 °F /  12.3 °C 47.1 °F /  8.4 °C 29.57in /  1001.2hPa WNW 7mph /  11.3km/h 11mph /  17.7km/h 77% 0.00in /  0mm 9 W/m2
18:44 54.1 °F /  12.3 °C 47 °F /  8.3 °C 29.57in /  1001.2hPa West 4.3mph /  6.9km/h 9mph /  14.5km/h 77% 0.00in /  0mm 5 W/m2
18:49 54 °F /  12.2 °C 46.9 °F /  8.3 °C 29.57in /  1001.2hPa WNW 4.3mph /  6.9km/h 11mph /  17.7km/h 77% 0.00in /  0mm 0 W/m2
18:54 54 °F /  12.2 °C 47.2 °F /  8.4 °C 29.57in /  1001.2hPa WNW 4.2mph /  6.8km/h 11mph /  17.7km/h 77.8% 0.00in /  0mm 0 W/m2
18:59 53.9 °F /  12.2 °C 47.2 °F /  8.4 °C 29.57in /  1001.2hPa West 3.6mph /  5.8km/h 7mph /  11.3km/h 78% 0.00in /  0mm 0 W/m2
19:04 53.8 °F /  12.1 °C 47.1 °F /  8.4 °C 29.57in /  1001.2hPa West 3.1mph /  5km/h 7mph /  11.3km/h 78% 0.00in /  0mm 0 W/m2
19:09 53.8 °F /  12.1 °C 47.1 °F /  8.4 °C 29.57in /  1001.2hPa West 2.4mph /  3.9km/h 6mph /  9.7km/h 78% 0.00in /  0mm 0 W/m2
19:14 53.6 °F /  12 °C 47.3 °F /  8.5 °C 29.57in /  1001.2hPa West 3.1mph /  5km/h 6mph /  9.7km/h 79% 0.00in /  0mm 0 W/m2
19:19 53.4 °F /  11.9 °C 47.2 °F /  8.4 °C 29.57in /  1001.2hPa West 4.9mph /  7.9km/h 7mph /  11.3km/h 79.2% 0.00in /  0mm 0 W/m2
19:24 53.3 °F /  11.8 °C 47.3 °F /  8.5 °C 29.57in /  1001.2hPa West 3.2mph /  5.1km/h 7mph /  11.3km/h 80% 0.00in /  0mm 0 W/m2
19:29 53.2 °F /  11.8 °C 47.5 °F /  8.6 °C 29.57in /  1001.2hPa WNW 4mph /  6.4km/h 6mph /  9.7km/h 80.8% 0.00in /  0mm 0 W/m2
19:34 53.2 °F /  11.8 °C 47.5 °F /  8.6 °C 29.57in /  1001.2hPa West 3.1mph /  5km/h 5mph /  8km/h 81% 0.00in /  0mm 0 W/m2
19:39 53.1 °F /  11.7 °C 47.4 °F /  8.6 °C 29.57in /  1001.2hPa West 3.6mph /  5.8km/h 7mph /  11.3km/h 81% 0.00in /  0mm 0 W/m2
19:44 53.1 °F /  11.7 °C 47.3 °F /  8.5 °C 29.57in /  1001.2hPa WNW 2.1mph /  3.4km/h 7mph /  11.3km/h 81% 0.00in /  0mm 0 W/m2
19:49 53.1 °F /  11.7 °C 47.3 °F /  8.5 °C 29.57in /  1001.2hPa West 4.8mph /  7.7km/h 9mph /  14.5km/h 81% 0.00in /  0mm 0 W/m2
19:54 53.2 °F /  11.8 °C 47.4 °F /  8.6 °C 29.57in /  1001.2hPa WNW 4.5mph /  7.2km/h 9mph /  14.5km/h 80.4% 0.00in /  0mm 0 W/m2
19:59 53.3 °F /  11.8 °C 46.9 °F /  8.3 °C 29.57in /  1001.2hPa WNW 5.7mph /  9.2km/h 9mph /  14.5km/h 78.6% 0.00in /  0mm 0 W/m2
20:04 53.5 °F /  11.9 °C 46.7 °F /  8.2 °C 29.57in /  1001.2hPa West 5.6mph /  9km/h 9mph /  14.5km/h 77.4% 0.00in /  0mm 0 W/m2
20:09 53.6 °F /  12 °C 46.6 °F /  8.1 °C 29.57in /  1001.2hPa WNW 3.7mph /  6km/h 9mph /  14.5km/h 77% 0.00in /  0mm 0 W/m2
20:14 53.6 °F /  12 °C 46.6 °F /  8.1 °C 29.57in /  1001.2hPa WNW 3.6mph /  5.8km/h 7mph /  11.3km/h 77% 0.00in /  0mm 0 W/m2
20:19 53.6 °F /  12 °C 46.6 °F /  8.1 °C 29.57in /  1001.2hPa WNW 4.2mph /  6.8km/h 8mph /  12.9km/h 77% 0.00in /  0mm 0 W/m2
20:24 53.5 °F /  11.9 °C 46.5 °F /  8.1 °C 29.57in /  1001.2hPa WNW 2.7mph /  4.3km/h 6mph /  9.7km/h 77% 0.00in /  0mm 0 W/m2
20:29 53.6 °F /  12 °C 46.2 °F /  7.9 °C 29.57in /  1001.2hPa WNW 2.4mph /  3.9km/h 7mph /  11.3km/h 76% 0.00in /  0mm 0 W/m2
20:34 53.4 °F /  11.9 °C 46 °F /  7.8 °C 29.57in /  1001.2hPa WNW 2.1mph /  3.4km/h 5mph /  8km/h 76% 0.00in /  0mm 0 W/m2
20:39 53.4 °F /  11.9 °C 46 °F /  7.8 °C 29.57in /  1001.2hPa West 2.9mph /  4.7km/h 6mph /  9.7km/h 76% 0.00in /  0mm 0 W/m2
20:44 53.4 °F /  11.9 °C 46 °F /  7.8 °C 29.57in /  1001.2hPa West 4.6mph /  7.4km/h 8mph /  12.9km/h 76% 0.00in /  0mm 0 W/m2
20:49 53.2 °F /  11.8 °C 45.9 °F /  7.7 °C 29.58in /  1001.6hPa West 2.4mph /  3.9km/h 6mph /  9.7km/h 76% 0.00in /  0mm 0 W/m2
20:54 53.2 °F /  11.8 °C 45.9 °F /  7.7 °C 29.58in /  1001.6hPa WNW 3.5mph /  5.6km/h 6mph /  9.7km/h 76% 0.00in /  0mm 0 W/m2
20:59 53.1 °F /  11.7 °C 45.8 °F /  7.7 °C 29.58in /  1001.6hPa WNW 4.9mph /  7.9km/h 10mph /  16.1km/h 76% 0.00in /  0mm 0 W/m2
21:04 53.1 °F /  11.7 °C 45.4 °F /  7.4 °C 29.58in /  1001.6hPa WNW 3.1mph /  5km/h 8mph /  12.9km/h 75.2% 0.00in /  0mm 0 W/m2
21:09 53.1 °F /  11.7 °C 45.3 °F /  7.4 °C 29.58in /  1001.6hPa WNW 2.8mph /  4.5km/h 9mph /  14.5km/h 74.8% 0.00in /  0mm 0 W/m2
21:14 53.1 °F /  11.7 °C 45 °F /  7.2 °C 29.58in /  1001.6hPa WNW 4mph /  6.4km/h 6mph /  9.7km/h 74% 0.00in /  0mm 0 W/m2
21:19 53.1 °F /  11.7 °C 45 °F /  7.2 °C 29.58in /  1001.6hPa NNW 4.1mph /  6.6km/h 7mph /  11.3km/h 74% 0.00in /  0mm 0 W/m2
21:24 53.1 °F /  11.7 °C 44.8 °F /  7.1 °C 29.58in /  1001.6hPa WNW 3.5mph /  5.6km/h 8mph /  12.9km/h 73.6% 0.00in /  0mm 0 W/m2
21:29 53.1 °F /  11.7 °C 44.6 °F /  7 °C 29.58in /  1001.6hPa WNW 4mph /  6.4km/h 9mph /  14.5km/h 73% 0.00in /  0mm 0 W/m2
21:34 52.9 °F /  11.6 °C 44.4 °F /  6.9 °C 29.58in /  1001.6hPa WNW 3.7mph /  6km/h 10mph /  16.1km/h 73% 0.00in /  0mm 0 W/m2
21:39 52.9 °F /  11.6 °C 44.4 °F /  6.9 °C 29.58in /  1001.6hPa WNW 3.5mph /  5.6km/h 8mph /  12.9km/h 73% 0.00in /  0mm 0 W/m2
21:44 52.8 °F /  11.6 °C 44.3 °F /  6.8 °C 29.58in /  1001.6hPa NW 3.2mph /  5.1km/h 7mph /  11.3km/h 73% 0.00in /  0mm 0 W/m2
21:49 52.6 °F /  11.4 °C 44.4 °F /  6.9 °C 29.58in /  1001.6hPa NW 2.6mph /  4.2km/h 6mph /  9.7km/h 73.8% 0.00in /  0mm 0 W/m2
21:54 52.4 °F /  11.3 °C 44.3 °F /  6.8 °C 29.58in /  1001.6hPa NW 4.1mph /  6.6km/h 8mph /  12.9km/h 74% 0.00in /  0mm 0 W/m2
21:59 52.3 °F /  11.3 °C 44.2 °F /  6.8 °C 29.58in /  1001.6hPa WNW 1.2mph /  1.9km/h 5mph /  8km/h 74% 0.00in /  0mm 0 W/m2
22:04 52.2 °F /  11.2 °C 44.1 °F /  6.7 °C 29.59in /  1001.9hPa NW 2.5mph /  4km/h 5mph /  8km/h 74% 0.00in /  0mm 0 W/m2
22:09 52 °F /  11.1 °C 44 °F /  6.7 °C 29.59in /  1001.9hPa NW 2.4mph /  3.9km/h 4mph /  6.4km/h 74.2% 0.00in /  0mm 0 W/m2
22:14 51.8 °F /  11 °C 44.1 °F /  6.7 °C 29.58in /  1001.6hPa NW 2.1mph /  3.4km/h 4mph /  6.4km/h 75% 0.00in /  0mm 0 W/m2
22:19 51.6 °F /  10.9 °C 43.9 °F /  6.6 °C 29.58in /  1001.6hPa NW 1.9mph /  3.1km/h 4mph /  6.4km/h 75% 0.00in /  0mm 0 W/m2
22:24 51.4 °F /  10.8 °C 43.7 °F /  6.5 °C 29.58in /  1001.6hPa NW 0.9mph /  1.4km/h 3mph /  4.8km/h 75.2% 0.00in /  0mm 0 W/m2
22:29 51.3 °F /  10.7 °C 43.8 °F /  6.6 °C 29.59in /  1001.9hPa NW 0.6mph /  1km/h 3mph /  4.8km/h 75.8% 0.00in /  0mm 0 W/m2
22:34 51.1 °F /  10.6 °C 43.7 °F /  6.5 °C 29.59in /  1001.9hPa NW 0.2mph /  0.3km/h 2mph /  3.2km/h 76% 0.00in /  0mm 0 W/m2
22:39 50.9 °F /  10.5 °C 43.6 °F /  6.4 °C 29.59in /  1001.9hPa NW 0.4mph /  0.6km/h 1mph /  1.6km/h 76.4% 0.00in /  0mm 0 W/m2
22:44 50.6 °F /  10.3 °C 43.5 °F /  6.4 °C 29.59in /  1001.9hPa NW 0.5mph /  0.8km/h 1mph /  1.6km/h 76.8% 0.00in /  0mm 0 W/m2
22:49 50.3 °F /  10.2 °C 43.3 °F /  6.3 °C 29.59in /  1001.9hPa NW 0.5mph /  0.8km/h 2mph /  3.2km/h 77% 0.00in /  0mm 0 W/m2
22:54 49.9 °F /  9.9 °C 43.2 °F /  6.2 °C 29.59in /  1001.9hPa NW 0.5mph /  0.8km/h 2mph /  3.2km/h 77.8% 0.00in /  0mm 0 W/m2
22:59 49.7 °F /  9.8 °C 43.1 °F /  6.2 °C 29.59in /  1001.9hPa NW 0.5mph /  0.8km/h 2mph /  3.2km/h 78% 0.00in /  0mm 0 W/m2
23:04 49.4 °F /  9.7 °C 42.9 °F /  6.1 °C 29.59in /  1001.9hPa NW 1mph /  1.6km/h 3mph /  4.8km/h 78.4% 0.00in /  0mm 0 W/m2
23:09 49.3 °F /  9.6 °C 43 °F /  6.1 °C 29.59in /  1001.9hPa NW 0.2mph /  0.3km/h 1mph /  1.6km/h 79% 0.00in /  0mm 0 W/m2
23:14 49 °F /  9.4 °C 42.7 °F /  5.9 °C 29.59in /  1001.9hPa Calm   1mph /  1.6km/h 79% 0.00in /  0mm 0 W/m2
23:19 48.8 °F /  9.3 °C 42.7 °F /  5.9 °C 29.59in /  1001.9hPa Calm     79.6% 0.00in /  0mm 0 W/m2
23:24 48.6 °F /  9.2 °C 42.6 °F /  5.9 °C 29.59in /  1001.9hPa NW 0.2mph /  0.3km/h 1mph /  1.6km/h 80% 0.00in /  0mm 0 W/m2
23:29 48.5 °F /  9.2 °C 42.7 °F /  5.9 °C 29.59in /  1001.9hPa NW 0.7mph /  1.1km/h 2mph /  3.2km/h 80.6% 0.00in /  0mm 0 W/m2
23:34 48.1 °F /  8.9 °C 42.5 °F /  5.8 °C 29.59in /  1001.9hPa NW 0.8mph /  1.3km/h 2mph /  3.2km/h 81% 0.00in /  0mm 0 W/m2
23:39 47.8 °F /  8.8 °C 42.3 °F /  5.7 °C 29.59in /  1001.9hPa NW 0.2mph /  0.3km/h 2mph /  3.2km/h 81.4% 0.00in /  0mm 0 W/m2
23:44 47.6 °F /  8.7 °C 42.4 °F /  5.8 °C 29.59in /  1001.9hPa Calm     82% 0.00in /  0mm 0 W/m2
23:49 47.4 °F /  8.6 °C 42.3 °F /  5.7 °C 29.59in /  1001.9hPa Calm     82.4% 0.00in /  0mm 0 W/m2
23:54 47.2 °F /  8.4 °C 42.4 °F /  5.8 °C 29.59in /  1001.9hPa NW 1.8mph /  2.9km/h 3mph /  4.8km/h 83% 0.00in /  0mm 0 W/m2
23:59 47.5 °F /  8.6 °C 42.6 °F /  5.9 °C 29.59in /  1001.9hPa NW 0.6mph /  1km/h 2mph /  3.2km/h 83.4% 0.00in /  0mm 0 W/m2
Bath Spa Weather
Compliments of Weather Underground - 2 mb